sensor_id;sensor_type;location;lat;lon;timestamp;pressure;altitude;pressure_sealevel;temperature;humidity
28456;BME280;15682;56.742;38.866;2023-04-10T00:01:40;100500.0;;;6.4;71.6
28456;BME280;15682;56.742;38.866;2023-04-10T00:03:40;100500.0;;;6.2;73.1
28456;BME280;15682;56.742;38.866;2023-04-10T00:05:40;100500.0;;;6.1;73.1
28456;BME280;15682;56.742;38.866;2023-04-10T00:07:41;100500.0;;;6.1;74.3
28456;BME280;15682;56.742;38.866;2023-04-10T00:09:40;100500.0;;;5.8;75.3
28456;BME280;15682;56.742;38.866;2023-04-10T00:11:41;100500.0;;;5.7;77.2
28456;BME280;15682;56.742;38.866;2023-04-10T00:13:41;100500.0;;;5.7;76.5
28456;BME280;15682;56.742;38.866;2023-04-10T00:15:41;100500.0;;;5.4;76.5
28456;BME280;15682;56.742;38.866;2023-04-10T00:17:41;100500.0;;;5.4;77.1
28456;BME280;15682;56.742;38.866;2023-04-10T00:19:41;100500.0;;;5.5;77.6
28456;BME280;15682;56.742;38.866;2023-04-10T00:21:41;100500.0;;;5.4;77.6
28456;BME280;15682;56.742;38.866;2023-04-10T00:23:41;100500.0;;;5.4;77.0
28456;BME280;15682;56.742;38.866;2023-04-10T00:25:41;100500.0;;;5.1;78.8
28456;BME280;15682;56.742;38.866;2023-04-10T00:27:41;100500.0;;;5.0;78.2
28456;BME280;15682;56.742;38.866;2023-04-10T00:29:41;100500.0;;;4.9;79.0
28456;BME280;15682;56.742;38.866;2023-04-10T00:31:41;100490.0;;;4.6;79.6
28456;BME280;15682;56.742;38.866;2023-04-10T00:33:41;100490.0;;;4.6;79.5
28456;BME280;15682;56.742;38.866;2023-04-10T00:35:41;100500.0;;;4.3;80.2
28456;BME280;15682;56.742;38.866;2023-04-10T00:37:41;100500.0;;;4.2;80.2
28456;BME280;15682;56.742;38.866;2023-04-10T00:39:41;100500.0;;;4.4;80.2
28456;BME280;15682;56.742;38.866;2023-04-10T00:41:41;100500.0;;;4.4;80.2
28456;BME280;15682;56.742;38.866;2023-04-10T00:43:42;100500.0;;;4.4;80.0
28456;BME280;15682;56.742;38.866;2023-04-10T00:45:41;100500.0;;;4.5;80.0
28456;BME280;15682;56.742;38.866;2023-04-10T00:47:41;100500.0;;;4.5;80.0
28456;BME280;15682;56.742;38.866;2023-04-10T00:49:42;100500.0;;;4.5;80.0
28456;BME280;15682;56.742;38.866;2023-04-10T00:51:41;100500.0;;;4.4;80.0
28456;BME280;15682;56.742;38.866;2023-04-10T00:53:41;100500.0;;;4.4;80.2
28456;BME280;15682;56.742;38.866;2023-04-10T00:55:41;100500.0;;;4.4;80.2
28456;BME280;15682;56.742;38.866;2023-04-10T00:57:44;100500.0;;;4.4;80.2
28456;BME280;15682;56.742;38.866;2023-04-10T00:59:41;100500.0;;;4.4;80.2
28456;BME280;15682;56.742;38.866;2023-04-10T01:01:41;100500.0;;;4.4;80.2
28456;BME280;15682;56.742;38.866;2023-04-10T01:03:42;100500.0;;;4.4;79.8
28456;BME280;15682;56.742;38.866;2023-04-10T01:05:46;100500.0;;;4.3;79.5
28456;BME280;15682;56.742;38.866;2023-04-10T01:08:01;100500.0;;;4.2;79.5
28456;BME280;15682;56.742;38.866;2023-04-10T01:09:47;100500.0;;;4.4;79.5
28456;BME280;15682;56.742;38.866;2023-04-10T01:11:48;100500.0;;;4.4;78.9
28456;BME280;15682;56.742;38.866;2023-04-10T01:13:48;100500.0;;;4.4;79.0
28456;BME280;15682;56.742;38.866;2023-04-10T01:15:45;100500.0;;;4.4;79.0
28456;BME280;15682;56.742;38.866;2023-04-10T01:17:47;100500.0;;;4.4;79.0
28456;BME280;15682;56.742;38.866;2023-04-10T01:20:00;100500.0;;;4.4;79.7
28456;BME280;15682;56.742;38.866;2023-04-10T01:21:41;100500.0;;;4.4;79.7
28456;BME280;15682;56.742;38.866;2023-04-10T01:24:00;100500.0;;;4.4;79.0
28456;BME280;15682;56.742;38.866;2023-04-10T01:25:44;100500.0;;;4.3;79.0
28456;BME280;15682;56.742;38.866;2023-04-10T01:27:49;100500.0;;;4.3;78.5
28456;BME280;15682;56.742;38.866;2023-04-10T01:29:45;100500.0;;;4.3;78.5
28456;BME280;15682;56.742;38.866;2023-04-10T01:31:47;100500.0;;;4.5;77.6
28456;BME280;15682;56.742;38.866;2023-04-10T01:33:46;100500.0;;;4.6;77.5
28456;BME280;15682;56.742;38.866;2023-04-10T01:35:44;100500.0;;;4.6;77.5
28456;BME280;15682;56.742;38.866;2023-04-10T01:37:42;100500.0;;;4.6;77.5
28456;BME280;15682;56.742;38.866;2023-04-10T01:39:42;100500.0;;;4.6;77.5
28456;BME280;15682;56.742;38.866;2023-04-10T01:41:43;100500.0;;;4.5;77.5
28456;BME280;15682;56.742;38.866;2023-04-10T01:43:42;100500.0;;;4.5;78.3
28456;BME280;15682;56.742;38.866;2023-04-10T01:45:42;100500.0;;;4.4;78.3
28456;BME280;15682;56.742;38.866;2023-04-10T01:47:42;100500.0;;;4.4;78.3
28456;BME280;15682;56.742;38.866;2023-04-10T01:49:44;100500.0;;;4.4;78.3
28456;BME280;15682;56.742;38.866;2023-04-10T01:51:42;100500.0;;;4.2;78.3
28456;BME280;15682;56.742;38.866;2023-04-10T01:53:42;100500.0;;;4.2;78.5
28456;BME280;15682;56.742;38.866;2023-04-10T01:55:42;100500.0;;;4.2;78.5
28456;BME280;15682;56.742;38.866;2023-04-10T01:57:41;100500.0;;;4.2;78.5
28456;BME280;15682;56.742;38.866;2023-04-10T01:59:41;100500.0;;;4.2;78.5
28456;BME280;15682;56.742;38.866;2023-04-10T02:01:41;100500.0;;;4.2;78.5
28456;BME280;15682;56.742;38.866;2023-04-10T02:03:41;100500.0;;;4.2;78.5
28456;BME280;15682;56.742;38.866;2023-04-10T02:05:50;100500.0;;;4.3;78.9
28456;BME280;15682;56.742;38.866;2023-04-10T02:07:45;100500.0;;;4.3;78.9
28456;BME280;15682;56.742;38.866;2023-04-10T02:09:48;100500.0;;;4.3;78.9
28456;BME280;15682;56.742;38.866;2023-04-10T02:11:47;100500.0;;;4.3;78.9
28456;BME280;15682;56.742;38.866;2023-04-10T02:13:41;100500.0;;;4.2;79.1
28456;BME280;15682;56.742;38.866;2023-04-10T02:15:42;100500.0;;;4.2;79.1
28456;BME280;15682;56.742;38.866;2023-04-10T02:17:41;100490.0;;;4.2;79.1
28456;BME280;15682;56.742;38.866;2023-04-10T02:19:42;100490.0;;;4.2;79.1
28456;BME280;15682;56.742;38.866;2023-04-10T02:21:41;100490.0;;;4.2;79.1
28456;BME280;15682;56.742;38.866;2023-04-10T02:23:42;100490.0;;;4.2;79.0
28456;BME280;15682;56.742;38.866;2023-04-10T02:25:42;100490.0;;;4.1;79.0
28456;BME280;15682;56.742;38.866;2023-04-10T02:27:41;100490.0;;;4.0;79.0
28456;BME280;15682;56.742;38.866;2023-04-10T02:29:41;100490.0;;;4.2;79.0
28456;BME280;15682;56.742;38.866;2023-04-10T02:31:42;100490.0;;;4.2;79.0
28456;BME280;15682;56.742;38.866;2023-04-10T02:33:41;100490.0;;;4.2;78.8
28456;BME280;15682;56.742;38.866;2023-04-10T02:35:41;100490.0;;;4.1;78.8
28456;BME280;15682;56.742;38.866;2023-04-10T02:37:41;100490.0;;;4.1;78.8
28456;BME280;15682;56.742;38.866;2023-04-10T02:39:41;100490.0;;;4.1;78.8
28456;BME280;15682;56.742;38.866;2023-04-10T02:41:41;100490.0;;;4.1;78.8
28456;BME280;15682;56.742;38.866;2023-04-10T02:43:41;100490.0;;;4.1;78.6
28456;BME280;15682;56.742;38.866;2023-04-10T02:45:41;100490.0;;;4.0;78.6
28456;BME280;15682;56.742;38.866;2023-04-10T02:47:41;100490.0;;;4.0;78.6
28456;BME280;15682;56.742;38.866;2023-04-10T02:49:41;100490.0;;;4.0;78.6
28456;BME280;15682;56.742;38.866;2023-04-10T02:51:41;100490.0;;;4.0;78.6
28456;BME280;15682;56.742;38.866;2023-04-10T02:53:41;100490.0;;;4.0;79.3
28456;BME280;15682;56.742;38.866;2023-04-10T02:55:41;100490.0;;;4.0;79.3
28456;BME280;15682;56.742;38.866;2023-04-10T02:57:41;100490.0;;;4.0;79.3
28456;BME280;15682;56.742;38.866;2023-04-10T02:59:41;100490.0;;;3.9;80.3
28456;BME280;15682;56.742;38.866;2023-04-10T03:01:41;100490.0;;;3.9;80.3
28456;BME280;15682;56.742;38.866;2023-04-10T03:03:41;100490.0;;;3.8;80.7
28456;BME280;15682;56.742;38.866;2023-04-10T03:05:41;100490.0;;;3.6;81.0
28456;BME280;15682;56.742;38.866;2023-04-10T03:07:41;100490.0;;;3.5;81.0
28456;BME280;15682;56.742;38.866;2023-04-10T03:09:41;100500.0;;;3.5;81.9
28456;BME280;15682;56.742;38.866;2023-04-10T03:11:41;100500.0;;;3.5;81.9
28456;BME280;15682;56.742;38.866;2023-04-10T03:13:41;100510.0;;;3.5;81.9
28456;BME280;15682;56.742;38.866;2023-04-10T03:15:41;100510.0;;;3.5;81.9
28456;BME280;15682;56.742;38.866;2023-04-10T03:17:41;100510.0;;;3.5;82.5
28456;BME280;15682;56.742;38.866;2023-04-10T03:19:41;100510.0;;;3.5;82.5
28456;BME280;15682;56.742;38.866;2023-04-10T03:21:41;100510.0;;;3.5;82.5
28456;BME280;15682;56.742;38.866;2023-04-10T03:23:41;100510.0;;;3.5;82.7
28456;BME280;15682;56.742;38.866;2023-04-10T03:25:41;100510.0;;;3.4;83.0
28456;BME280;15682;56.742;38.866;2023-04-10T03:27:41;100510.0;;;3.4;82.1
28456;BME280;15682;56.742;38.866;2023-04-10T03:29:41;100510.0;;;3.4;82.1
28456;BME280;15682;56.742;38.866;2023-04-10T03:31:41;100510.0;;;3.4;82.1
28456;BME280;15682;56.742;38.866;2023-04-10T03:33:41;100510.0;;;3.7;81.8
28456;BME280;15682;56.742;38.866;2023-04-10T03:35:41;100510.0;;;3.8;81.3
28456;BME280;15682;56.742;38.866;2023-04-10T03:37:41;100510.0;;;3.9;80.8
28456;BME280;15682;56.742;38.866;2023-04-10T03:39:41;100510.0;;;4.0;80.2
28456;BME280;15682;56.742;38.866;2023-04-10T03:41:41;100520.0;;;3.9;80.2
28456;BME280;15682;56.742;38.866;2023-04-10T03:43:41;100520.0;;;3.8;80.3
28456;BME280;15682;56.742;38.866;2023-04-10T03:45:41;100520.0;;;3.9;80.3
28456;BME280;15682;56.742;38.866;2023-04-10T03:47:41;100520.0;;;3.9;81.6
28456;BME280;15682;56.742;38.866;2023-04-10T03:49:41;100520.0;;;3.9;82.2
28456;BME280;15682;56.742;38.866;2023-04-10T03:51:41;100520.0;;;3.9;82.2
28456;BME280;15682;56.742;38.866;2023-04-10T03:53:41;100520.0;;;3.8;81.5
28456;BME280;15682;56.742;38.866;2023-04-10T03:55:41;100520.0;;;3.7;81.5
28456;BME280;15682;56.742;38.866;2023-04-10T03:57:41;100530.0;;;3.7;81.5
28456;BME280;15682;56.742;38.866;2023-04-10T03:59:41;100530.0;;;3.6;82.3
28456;BME280;15682;56.742;38.866;2023-04-10T04:01:41;100530.0;;;3.6;82.3
28456;BME280;15682;56.742;38.866;2023-04-10T04:03:41;100540.0;;;4.0;81.0
28456;BME280;15682;56.742;38.866;2023-04-10T04:05:41;100540.0;;;4.6;77.1
28456;BME280;15682;56.742;38.866;2023-04-10T04:07:41;100540.0;;;4.7;76.7
28456;BME280;15682;56.742;38.866;2023-04-10T04:09:41;100540.0;;;4.8;76.1
28456;BME280;15682;56.742;38.866;2023-04-10T04:11:41;100540.0;;;4.7;75.2
28456;BME280;15682;56.742;38.866;2023-04-10T04:13:41;100540.0;;;4.6;76.1
28456;BME280;15682;56.742;38.866;2023-04-10T04:15:41;100540.0;;;4.4;75.3
28456;BME280;15682;56.742;38.866;2023-04-10T04:17:41;100540.0;;;4.4;76.4
28456;BME280;15682;56.742;38.866;2023-04-10T04:19:41;100540.0;;;4.4;76.6
28456;BME280;15682;56.742;38.866;2023-04-10T04:21:41;100540.0;;;4.6;76.6
28456;BME280;15682;56.742;38.866;2023-04-10T04:23:41;100540.0;;;4.6;76.1
28456;BME280;15682;56.742;38.866;2023-04-10T04:25:42;100540.0;;;5.0;76.7
28456;BME280;15682;56.742;38.866;2023-04-10T04:27:42;100540.0;;;5.1;75.7
28456;BME280;15682;56.742;38.866;2023-04-10T04:29:42;100540.0;;;5.1;74.5
28456;BME280;15682;56.742;38.866;2023-04-10T04:31:42;100540.0;;;5.2;74.5
28456;BME280;15682;56.742;38.866;2023-04-10T04:33:42;100540.0;;;5.6;74.7
28456;BME280;15682;56.742;38.866;2023-04-10T04:35:43;100540.0;;;5.9;73.4
28456;BME280;15682;56.742;38.866;2023-04-10T04:37:43;100540.0;;;6.0;75.5
28456;BME280;15682;56.742;38.866;2023-04-10T04:39:43;100530.0;;;6.3;75.2
28456;BME280;15682;56.742;38.866;2023-04-10T04:41:43;100530.0;;;6.1;69.5
28456;BME280;15682;56.742;38.866;2023-04-10T04:43:43;100530.0;;;6.0;68.9
28456;BME280;15682;56.742;38.866;2023-04-10T04:45:44;100530.0;;;6.2;70.4
28456;BME280;15682;56.742;38.866;2023-04-10T04:47:44;100530.0;;;6.2;68.1
28456;BME280;15682;56.742;38.866;2023-04-10T04:49:44;100530.0;;;6.2;68.5
28456;BME280;15682;56.742;38.866;2023-04-10T04:51:44;100530.0;;;6.5;69.4
28456;BME280;15682;56.742;38.866;2023-04-10T04:53:45;100530.0;;;6.5;68.6
28456;BME280;15682;56.742;38.866;2023-04-10T04:55:45;100530.0;;;6.6;68.1
28456;BME280;15682;56.742;38.866;2023-04-10T04:57:45;100530.0;;;6.6;66.3
28456;BME280;15682;56.742;38.866;2023-04-10T04:59:46;100530.0;;;6.4;66.8
28456;BME280;15682;56.742;38.866;2023-04-10T05:01:46;100530.0;;;6.4;66.8
28456;BME280;15682;56.742;38.866;2023-04-10T05:03:46;100530.0;;;6.4;67.9
28456;BME280;15682;56.742;38.866;2023-04-10T05:05:47;100530.0;;;6.5;67.9
28456;BME280;15682;56.742;38.866;2023-04-10T05:07:47;100530.0;;;6.7;67.0
28456;BME280;15682;56.742;38.866;2023-04-10T05:09:47;100530.0;;;7.0;67.1
28456;BME280;15682;56.742;38.866;2023-04-10T05:11:47;100530.0;;;7.1;64.6
28456;BME280;15682;56.742;38.866;2023-04-10T05:13:48;100530.0;;;7.3;65.0
28456;BME280;15682;56.742;38.866;2023-04-10T05:15:48;100530.0;;;7.3;65.9
28456;BME280;15682;56.742;38.866;2023-04-10T05:17:48;100530.0;;;7.3;66.6
28456;BME280;15682;56.742;38.866;2023-04-10T05:19:49;100530.0;;;7.4;65.1
28456;BME280;15682;56.742;38.866;2023-04-10T05:21:49;100530.0;;;7.7;64.5
28456;BME280;15682;56.742;38.866;2023-04-10T05:23:49;100530.0;;;7.7;61.5
28456;BME280;15682;56.742;38.866;2023-04-10T05:25:50;100530.0;;;7.8;64.2
28456;BME280;15682;56.742;38.866;2023-04-10T05:27:50;100530.0;;;7.8;62.3
28456;BME280;15682;56.742;38.866;2023-04-10T05:29:50;100530.0;;;7.9;62.7
28456;BME280;15682;56.742;38.866;2023-04-10T05:31:51;100530.0;;;7.9;63.6
28456;BME280;15682;56.742;38.866;2023-04-10T05:33:51;100530.0;;;8.3;64.0
28456;BME280;15682;56.742;38.866;2023-04-10T05:35:51;100530.0;;;8.3;63.2
28456;BME280;15682;56.742;38.866;2023-04-10T05:37:52;100530.0;;;8.4;62.1
28456;BME280;15682;56.742;38.866;2023-04-10T05:39:52;100530.0;;;8.4;61.2
28456;BME280;15682;56.742;38.866;2023-04-10T05:41:53;100530.0;;;8.4;60.4
28456;BME280;15682;56.742;38.866;2023-04-10T05:43:53;100530.0;;;8.4;60.4
28456;BME280;15682;56.742;38.866;2023-04-10T05:45:54;100530.0;;;8.5;61.4
28456;BME280;15682;56.742;38.866;2023-04-10T05:47:54;100530.0;;;8.5;59.1
28456;BME280;15682;56.742;38.866;2023-04-10T05:49:54;100530.0;;;8.7;60.3
28456;BME280;15682;56.742;38.866;2023-04-10T05:51:55;100530.0;;;8.7;59.6
28456;BME280;15682;56.742;38.866;2023-04-10T05:53:55;100530.0;;;8.8;58.8
28456;BME280;15682;56.742;38.866;2023-04-10T05:55:56;100530.0;;;9.0;60.4
28456;BME280;15682;56.742;38.866;2023-04-10T05:57:56;100530.0;;;9.1;57.8
28456;BME280;15682;56.742;38.866;2023-04-10T05:59:56;100540.0;;;9.3;60.5
28456;BME280;15682;56.742;38.866;2023-04-10T06:01:57;100540.0;;;9.3;57.3
28456;BME280;15682;56.742;38.866;2023-04-10T06:03:57;100540.0;;;9.3;57.3
28456;BME280;15682;56.742;38.866;2023-04-10T06:05:59;100540.0;;;9.3;56.5
28456;BME280;15682;56.742;38.866;2023-04-10T06:07:58;100540.0;;;9.4;56.2
28456;BME280;15682;56.742;38.866;2023-04-10T06:09:59;100540.0;;;9.4;56.7
28456;BME280;15682;56.742;38.866;2023-04-10T06:11:59;100540.0;;;9.6;55.7
28456;BME280;15682;56.742;38.866;2023-04-10T06:14:00;100540.0;;;9.7;55.7
28456;BME280;15682;56.742;38.866;2023-04-10T06:16:00;100540.0;;;9.9;53.6
28456;BME280;15682;56.742;38.866;2023-04-10T06:18:01;100540.0;;;10.0;54.5
28456;BME280;15682;56.742;38.866;2023-04-10T06:20:02;100540.0;;;10.0;54.8
28456;BME280;15682;56.742;38.866;2023-04-10T06:22:01;100540.0;;;10.2;54.8
28456;BME280;15682;56.742;38.866;2023-04-10T06:24:02;100540.0;;;10.3;52.6
28456;BME280;15682;56.742;38.866;2023-04-10T06:26:03;100540.0;;;10.3;52.3
28456;BME280;15682;56.742;38.866;2023-04-10T06:28:03;100540.0;;;10.5;52.3
28456;BME280;15682;56.742;38.866;2023-04-10T06:30:04;100540.0;;;10.5;52.8
28456;BME280;15682;56.742;38.866;2023-04-10T06:32:04;100540.0;;;10.6;51.1
28456;BME280;15682;56.742;38.866;2023-04-10T06:34:04;100540.0;;;10.6;50.9
28456;BME280;15682;56.742;38.866;2023-04-10T06:36:05;100540.0;;;10.7;50.1
28456;BME280;15682;56.742;38.866;2023-04-10T06:38:06;100540.0;;;10.7;50.1
28456;BME280;15682;56.742;38.866;2023-04-10T06:40:08;100540.0;;;10.9;51.1
28456;BME280;15682;56.742;38.866;2023-04-10T06:42:06;100550.0;;;11.0;51.1
28456;BME280;15682;56.742;38.866;2023-04-10T06:44:07;100550.0;;;11.2;52.6
28456;BME280;15682;56.742;38.866;2023-04-10T06:46:07;100550.0;;;11.0;51.1
28456;BME280;15682;56.742;38.866;2023-04-10T06:48:08;100550.0;;;11.3;50.0
28456;BME280;15682;56.742;38.866;2023-04-10T06:50:09;100550.0;;;11.3;51.0
28456;BME280;15682;56.742;38.866;2023-04-10T06:52:09;100550.0;;;11.5;49.8
28456;BME280;15682;56.742;38.866;2023-04-10T06:54:09;100550.0;;;11.2;49.8
28456;BME280;15682;56.742;38.866;2023-04-10T06:56:10;100550.0;;;11.4;49.8
28456;BME280;15682;56.742;38.866;2023-04-10T06:58:10;100550.0;;;11.5;50.3
28456;BME280;15682;56.742;38.866;2023-04-10T07:00:11;100550.0;;;11.5;49.7
28456;BME280;15682;56.742;38.866;2023-04-10T07:02:11;100550.0;;;11.5;50.4
28456;BME280;15682;56.742;38.866;2023-04-10T07:04:11;100550.0;;;11.8;51.0
28456;BME280;15682;56.742;38.866;2023-04-10T07:06:12;100550.0;;;11.9;47.9
28456;BME280;15682;56.742;38.866;2023-04-10T07:08:13;100550.0;;;12.0;48.8
28456;BME280;15682;56.742;38.866;2023-04-10T07:10:13;100550.0;;;12.1;48.3
28456;BME280;15682;56.742;38.866;2023-04-10T07:12:13;100550.0;;;12.1;48.9
28456;BME280;15682;56.742;38.866;2023-04-10T07:14:14;100550.0;;;12.2;47.9
28456;BME280;15682;56.742;38.866;2023-04-10T07:16:14;100550.0;;;12.4;48.6
28456;BME280;15682;56.742;38.866;2023-04-10T07:18:15;100550.0;;;12.4;47.7
28456;BME280;15682;56.742;38.866;2023-04-10T07:20:15;100550.0;;;12.4;49.0
28456;BME280;15682;56.742;38.866;2023-04-10T07:22:15;100550.0;;;12.6;47.6
28456;BME280;15682;56.742;38.866;2023-04-10T07:24:16;100550.0;;;12.6;46.9
28456;BME280;15682;56.742;38.866;2023-04-10T07:26:16;100550.0;;;12.6;46.9
28456;BME280;15682;56.742;38.866;2023-04-10T07:28:16;100550.0;;;12.7;47.4
28456;BME280;15682;56.742;38.866;2023-04-10T07:30:17;100550.0;;;12.7;47.2
28456;BME280;15682;56.742;38.866;2023-04-10T07:32:17;100540.0;;;12.9;46.3
28456;BME280;15682;56.742;38.866;2023-04-10T07:34:17;100540.0;;;12.9;46.3
28456;BME280;15682;56.742;38.866;2023-04-10T07:36:18;100540.0;;;13.0;46.6
28456;BME280;15682;56.742;38.866;2023-04-10T07:38:18;100540.0;;;13.2;47.5
28456;BME280;15682;56.742;38.866;2023-04-10T07:40:18;100540.0;;;13.4;45.7
28456;BME280;15682;56.742;38.866;2023-04-10T07:42:18;100540.0;;;13.5;45.7
28456;BME280;15682;56.742;38.866;2023-04-10T07:44:19;100540.0;;;13.5;45.8
28456;BME280;15682;56.742;38.866;2023-04-10T07:46:19;100540.0;;;13.5;46.5
28456;BME280;15682;56.742;38.866;2023-04-10T07:48:19;100540.0;;;13.5;46.3
28456;BME280;15682;56.742;38.866;2023-04-10T07:50:19;100540.0;;;13.3;46.3
28456;BME280;15682;56.742;38.866;2023-04-10T07:52:20;100540.0;;;13.4;45.6
28456;BME280;15682;56.742;38.866;2023-04-10T07:54:20;100540.0;;;13.6;45.8
28456;BME280;15682;56.742;38.866;2023-04-10T07:56:20;100540.0;;;13.9;45.8
28456;BME280;15682;56.742;38.866;2023-04-10T07:58:20;100540.0;;;14.0;45.3
28456;BME280;15682;56.742;38.866;2023-04-10T08:00:21;100540.0;;;14.1;45.3
28456;BME280;15682;56.742;38.866;2023-04-10T08:02:21;100540.0;;;14.3;45.3
28456;BME280;15682;56.742;38.866;2023-04-10T08:04:21;100530.0;;;14.1;44.7
28456;BME280;15682;56.742;38.866;2023-04-10T08:06:22;100530.0;;;14.1;46.1
28456;BME280;15682;56.742;38.866;2023-04-10T08:08:22;100530.0;;;14.1;46.0
28456;BME280;15682;56.742;38.866;2023-04-10T08:10:22;100530.0;;;14.2;44.9
28456;BME280;15682;56.742;38.866;2023-04-10T08:12:22;100530.0;;;14.5;45.9
28456;BME280;15682;56.742;38.866;2023-04-10T08:14:23;100520.0;;;14.5;45.3
28456;BME280;15682;56.742;38.866;2023-04-10T08:16:24;100520.0;;;14.5;45.3
28456;BME280;15682;56.742;38.866;2023-04-10T08:18:23;100520.0;;;14.4;45.3
28456;BME280;15682;56.742;38.866;2023-04-10T08:20:23;100520.0;;;13.9;48.3
28456;BME280;15682;56.742;38.866;2023-04-10T08:22:24;100520.0;;;13.9;47.4
28456;BME280;15682;56.742;38.866;2023-04-10T08:24:24;100520.0;;;14.2;45.9
28456;BME280;15682;56.742;38.866;2023-04-10T08:26:25;100520.0;;;14.5;45.8
28456;BME280;15682;56.742;38.866;2023-04-10T08:28:24;100520.0;;;14.8;45.0
28456;BME280;15682;56.742;38.866;2023-04-10T08:30:25;100520.0;;;15.0;45.0
28456;BME280;15682;56.742;38.866;2023-04-10T08:32:25;100520.0;;;15.3;45.0
28456;BME280;15682;56.742;38.866;2023-04-10T08:34:25;100520.0;;;15.4;45.0
28456;BME280;15682;56.742;38.866;2023-04-10T08:36:26;100510.0;;;15.2;44.3
28456;BME280;15682;56.742;38.866;2023-04-10T08:38:26;100510.0;;;15.2;45.7
28456;BME280;15682;56.742;38.866;2023-04-10T08:40:26;100510.0;;;15.2;44.8
28456;BME280;15682;56.742;38.866;2023-04-10T08:42:26;100510.0;;;15.2;44.9
28456;BME280;15682;56.742;38.866;2023-04-10T08:44:27;100500.0;;;14.6;45.2
28456;BME280;15682;56.742;38.866;2023-04-10T08:46:28;100490.0;;;14.4;46.2
28456;BME280;15682;56.742;38.866;2023-04-10T08:48:31;100490.0;;;14.3;46.2
28456;BME280;15682;56.742;38.866;2023-04-10T08:50:28;100490.0;;;14.0;46.2
28456;BME280;15682;56.742;38.866;2023-04-10T08:52:29;100490.0;;;13.8;47.0
28456;BME280;15682;56.742;38.866;2023-04-10T08:54:29;100490.0;;;14.0;47.1
28456;BME280;15682;56.742;38.866;2023-04-10T08:56:30;100490.0;;;14.0;47.1
28456;BME280;15682;56.742;38.866;2023-04-10T08:58:30;100490.0;;;14.1;47.1
28456;BME280;15682;56.742;38.866;2023-04-10T09:00:29;100490.0;;;14.0;46.3
28456;BME280;15682;56.742;38.866;2023-04-10T09:02:29;100490.0;;;14.0;47.6
28456;BME280;15682;56.742;38.866;2023-04-10T09:04:29;100490.0;;;14.0;47.3
28456;BME280;15682;56.742;38.866;2023-04-10T09:06:29;100490.0;;;13.8;49.4
28456;BME280;15682;56.742;38.866;2023-04-10T09:08:30;100490.0;;;13.8;48.3
28456;BME280;15682;56.742;38.866;2023-04-10T09:10:30;100490.0;;;13.8;48.3
28456;BME280;15682;56.742;38.866;2023-04-10T09:12:42;100490.0;;;13.8;49.2
28456;BME280;15682;56.742;38.866;2023-04-10T09:14:32;100490.0;;;13.7;48.4
28456;BME280;15682;56.742;38.866;2023-04-10T09:16:31;100490.0;;;13.8;49.2
28456;BME280;15682;56.742;38.866;2023-04-10T09:18:46;100490.0;;;13.3;51.3
28456;BME280;15682;56.742;38.866;2023-04-10T09:20:31;100490.0;;;13.3;53.2
28456;BME280;15682;56.742;38.866;2023-04-10T09:22:33;100490.0;;;13.2;53.2
28456;BME280;15682;56.742;38.866;2023-04-10T09:24:36;100490.0;;;13.2;54.4
28456;BME280;15682;56.742;38.866;2023-04-10T09:26:32;100490.0;;;13.4;50.5
28456;BME280;15682;56.742;38.866;2023-04-10T09:28:32;100490.0;;;13.5;49.5
28456;BME280;15682;56.742;38.866;2023-04-10T09:30:34;100490.0;;;13.5;49.5
28456;BME280;15682;56.742;38.866;2023-04-10T09:32:37;100500.0;;;13.5;50.2
28456;BME280;15682;56.742;38.866;2023-04-10T09:34:33;100500.0;;;13.4;49.8
28456;BME280;15682;56.742;38.866;2023-04-10T09:36:33;100500.0;;;13.2;50.7
28456;BME280;15682;56.742;38.866;2023-04-10T09:38:33;100500.0;;;13.2;50.7
28456;BME280;15682;56.742;38.866;2023-04-10T09:40:33;100500.0;;;13.2;51.3
28456;BME280;15682;56.742;38.866;2023-04-10T09:42:35;100500.0;;;13.2;50.7
28456;BME280;15682;56.742;38.866;2023-04-10T09:44:36;100500.0;;;13.2;50.6
28456;BME280;15682;56.742;38.866;2023-04-10T09:46:34;100500.0;;;13.3;50.1
28456;BME280;15682;56.742;38.866;2023-04-10T09:48:34;100500.0;;;13.3;49.5
28456;BME280;15682;56.742;38.866;2023-04-10T09:50:35;100490.0;;;13.3;49.5
28456;BME280;15682;56.742;38.866;2023-04-10T09:52:35;100490.0;;;13.4;50.1
28456;BME280;15682;56.742;38.866;2023-04-10T09:54:35;100490.0;;;13.5;49.4
28456;BME280;15682;56.742;38.866;2023-04-10T09:56:37;100490.0;;;13.7;49.4
28456;BME280;15682;56.742;38.866;2023-04-10T09:58:35;100490.0;;;13.8;48.8
28456;BME280;15682;56.742;38.866;2023-04-10T10:00:39;100490.0;;;13.8;48.2
28456;BME280;15682;56.742;38.866;2023-04-10T10:02:36;100490.0;;;13.6;48.2
28456;BME280;15682;56.742;38.866;2023-04-10T10:04:36;100490.0;;;13.6;48.5
28456;BME280;15682;56.742;38.866;2023-04-10T10:06:37;100490.0;;;13.7;48.5
28456;BME280;15682;56.742;38.866;2023-04-10T10:08:36;100490.0;;;13.9;48.5
28456;BME280;15682;56.742;38.866;2023-04-10T10:10:39;100490.0;;;13.9;47.6
28456;BME280;15682;56.742;38.866;2023-04-10T10:12:42;100490.0;;;13.9;47.6
28456;BME280;15682;56.742;38.866;2023-04-10T10:14:42;100490.0;;;13.9;48.2
28456;BME280;15682;56.742;38.866;2023-04-10T10:16:42;100490.0;;;14.2;47.0
28456;BME280;15682;56.742;38.866;2023-04-10T10:18:43;100490.0;;;14.4;46.3
28456;BME280;15682;56.742;38.866;2023-04-10T10:20:38;100490.0;;;14.6;45.3
28456;BME280;15682;56.742;38.866;2023-04-10T10:22:39;100490.0;;;14.6;46.0
28456;BME280;15682;56.742;38.866;2023-04-10T10:24:39;100490.0;;;14.6;45.1
28456;BME280;15682;56.742;38.866;2023-04-10T10:26:39;100490.0;;;14.7;45.1
28456;BME280;15682;56.742;38.866;2023-04-10T10:28:39;100490.0;;;14.6;47.0
28456;BME280;15682;56.742;38.866;2023-04-10T10:30:39;100490.0;;;14.7;45.5
28456;BME280;15682;56.742;38.866;2023-04-10T10:32:40;100490.0;;;14.8;46.0
28456;BME280;15682;56.742;38.866;2023-04-10T10:34:39;100490.0;;;14.6;44.8
28456;BME280;15682;56.742;38.866;2023-04-10T10:36:40;100490.0;;;14.4;45.6
28456;BME280;15682;56.742;38.866;2023-04-10T10:38:46;100490.0;;;14.4;45.6
28456;BME280;15682;56.742;38.866;2023-04-10T10:40:47;100480.0;;;14.4;45.6
28456;BME280;15682;56.742;38.866;2023-04-10T10:42:45;100480.0;;;14.4;45.6
28456;BME280;15682;56.742;38.866;2023-04-10T10:44:44;100480.0;;;14.4;46.4
28456;BME280;15682;56.742;38.866;2023-04-10T10:46:45;100490.0;;;14.4;46.4
28456;BME280;15682;56.742;38.866;2023-04-10T10:48:54;100490.0;;;14.4;45.8
28456;BME280;15682;56.742;38.866;2023-04-10T10:50:56;100480.0;;;14.4;46.5